Time;durP1;ratioP1;P1;durP2;ratioP2;P2;SDS_P1;SDS_P2;PMS_P1;PMS_P2;Temp;Humidity;BMP_temperature;BMP_pressure;BME280_temperature;BME280_humidity;BME280_pressure;Samples;Min_cycle;Max_cycle;Signal;HPM_P1;HPM_P2
2022/10/20 00:00:11;;;;;;;6.45;3.42;;;;;;;8.96;78.06;99771.56;4997166;28;20418;-47
2022/10/20 00:03:15;;;;;;;5.65;3.13;;;;;;;9.49;80.27;99771.72;5003203;28;20042;-47
2022/10/20 00:06:14;;;;;;;5.82;3.30;;;;;;;8.72;79.90;99765.66;4991822;28;20054;-51
2022/10/20 00:09:02;;;;;;;5.35;2.80;;;;;;;9.52;86.78;99769.88;4988419;28;20141;-50
2022/10/20 00:11:46;;;;;;;7.18;3.10;;;;;;;11.65;74.47;99776.34;4993787;28;20038;-52
2022/10/20 00:14:31;;;;;;;6.03;3.92;;;;;;;11.75;74.89;99765.34;4995107;28;20100;-51
2022/10/20 00:17:15;;;;;;;6.88;3.30;;;;;;;11.16;72.31;99772.09;4984486;28;20806;-49
2022/10/20 00:20:00;;;;;;;3.97;2.55;;;;;;;11.08;76.56;99777.75;4998090;28;20128;-52
2022/10/20 00:22:45;;;;;;;4.65;2.78;;;;;;;11.46;74.50;99774.78;4976150;28;20125;-48
2022/10/20 00:25:30;;;;;;;5.68;2.60;;;;;;;10.98;76.49;99780.03;4993028;28;20065;-47
2022/10/20 00:28:14;;;;;;;3.00;2.25;;;;;;;11.09;77.08;99777.66;4990415;28;20088;-51
2022/10/20 00:30:59;;;;;;;5.50;3.00;;;;;;;11.58;74.60;99781.13;5001885;28;20450;-49
2022/10/20 00:33:44;;;;;;;5.82;2.88;;;;;;;11.56;74.31;99777.72;4996682;28;20044;-51
2022/10/20 00:36:29;;;;;;;5.82;2.60;;;;;;;11.27;72.24;99766.25;4990253;28;20105;-48
2022/10/20 00:39:13;;;;;;;7.53;3.40;;;;;;;9.67;73.41;99763.06;4984209;28;20121;-50
2022/10/20 00:42:01;;;;;;;5.90;2.83;;;;;;;10.46;78.94;99761.75;4993979;28;20120;-47
2022/10/20 00:44:59;;;;;;;4.72;2.85;;;;;;;10.83;74.06;99766.81;5003698;28;20042;-47
2022/10/20 00:48:01;;;;;;;5.60;2.63;;;;;;;11.27;75.15;99768.88;4988815;28;20125;-47
2022/10/20 00:50:51;;;;;;;4.88;2.92;;;;;;;11.11;71.96;99761.00;5001992;28;20038;-47
2022/10/20 00:53:36;;;;;;;4.22;2.95;;;;;;;10.63;74.69;99752.16;4994667;28;20068;-48
2022/10/20 00:56:21;;;;;;;6.80;4.03;;;;;;;10.90;72.69;99753.38;4997729;28;20042;-50
2022/10/20 00:59:07;;;;;;;3.80;2.85;;;;;;;11.35;73.84;99750.91;4994406;28;20125;-52
2022/10/20 01:01:53;;;;;;;5.47;3.00;;;;;;;11.35;72.70;99743.03;4990397;28;20045;-47
2022/10/20 01:04:38;;;;;;;4.95;2.50;;;;;;;11.73;72.95;99748.81;4986866;28;20042;-50
2022/10/20 01:07:23;;;;;;;5.60;2.88;;;;;;;11.41;70.76;99740.06;4995656;28;20433;-48
2022/10/20 01:10:08;;;;;;;4.03;2.72;;;;;;;10.97;71.89;99739.00;4995965;28;20451;-52
2022/10/20 01:13:28;;;;;;;6.07;2.80;;;;;;;10.77;74.99;99737.47;4985833;28;20122;-52
2022/10/20 01:16:25;;;;;;;5.32;2.65;;;;;;;11.13;75.79;99736.38;4965886;28;21849;-48
2022/10/20 01:19:46;;;;;;;6.80;2.85;;;;;;;11.23;71.61;99733.25;4942037;28;20530;-48
2022/10/20 01:22:43;;;;;;;4.32;2.47;;;;;;;11.53;73.30;99732.44;4963984;28;20126;-52
2022/10/20 01:26:06;;;;;;;5.68;3.10;;;;;;;10.38;75.67;99735.06;4946625;28;20081;-52
2022/10/20 01:29:07;;;;;;;6.63;4.03;;;;;;;10.46;75.36;99734.69;4898487;29;20056;-50
2022/10/20 01:32:18;;;;;;;4.22;2.85;;;;;;;10.78;74.51;99728.66;4899388;29;20051;-51
2022/10/20 01:35:16;;;;;;;4.78;3.05;;;;;;;10.08;74.96;99731.34;4821003;29;20062;-48
2022/10/20 01:38:06;;;;;;;5.15;3.30;;;;;;;10.64;74.20;99726.81;4816749;29;20050;-48
2022/10/20 01:41:24;;;;;;;6.13;2.80;;;;;;;9.93;75.12;99732.97;4803421;29;20522;-50
2022/10/20 01:44:13;;;;;;;7.05;3.42;;;;;;;10.41;75.10;99716.56;4816253;29;20125;-50
2022/10/20 01:46:59;;;;;;;3.38;2.50;;;;;;;9.86;78.01;99700.16;4814443;29;20123;-49
2022/10/20 01:49:47;;;;;;;7.82;2.83;;;;;;;10.19;76.54;99704.63;4803032;29;20043;-49
2022/10/20 01:52:32;;;;;;;4.55;2.47;;;;;;;10.39;76.50;99707.97;4820646;29;20133;-48
2022/10/20 01:55:17;;;;;;;3.88;2.30;;;;;;;10.13;72.54;99696.22;4831504;29;20186;-52
2022/10/20 01:58:23;;;;;;;4.38;2.70;;;;;;;8.20;78.98;99702.59;4821896;29;20079;-52
2022/10/20 02:01:52;;;;;;;4.32;2.50;;;;;;;8.00;80.63;99706.94;4877168;29;20081;-51
2022/10/20 02:04:55;;;;;;;2.83;2.20;;;;;;;8.68;83.19;99710.09;4872473;29;20049;-50
2022/10/20 02:07:41;;;;;;;3.58;2.30;;;;;;;8.84;79.94;99717.25;4871172;29;20041;-55
2022/10/20 02:10:31;;;;;;;6.93;2.50;;;;;;;9.73;81.17;99713.88;4869409;29;20482;-47
2022/10/20 02:13:19;;;;;;;6.20;3.30;;;;;;;9.95;78.27;99702.34;4927971;29;20050;-47
2022/10/20 02:16:12;;;;;;;5.32;3.35;;;;;;;10.40;77.58;99707.03;4947425;28;20407;-49
2022/10/20 02:18:58;;;;;;;7.47;3.35;;;;;;;10.12;78.17;99705.03;4939959;29;20039;-49
2022/10/20 02:21:43;;;;;;;3.72;2.53;;;;;;;10.88;76.75;99702.81;4947284;29;20077;-50
2022/10/20 02:24:35;;;;;;;4.25;2.70;;;;;;;10.93;74.84;99698.16;4915783;29;20058;-52
2022/10/20 02:27:31;;;;;;;5.68;2.72;;;;;;;11.49;74.57;99704.69;4934004;29;20373;-49
2022/10/20 02:30:17;;;;;;;5.70;2.58;;;;;;;11.14;72.79;99696.13;4932386;29;20073;-47
2022/10/20 02:33:03;;;;;;;4.25;2.78;;;;;;;10.99;70.21;99697.81;4942251;29;20078;-48
2022/10/20 02:35:55;;;;;;;5.60;2.67;;;;;;;10.80;73.40;99690.13;4942915;29;20523;-50
2022/10/20 02:38:39;;;;;;;3.72;2.15;;;;;;;11.22;74.27;99698.31;4948531;29;20117;-48
2022/10/20 02:41:24;;;;;;;3.28;2.42;;;;;;;11.98;70.19;99693.06;4988525;28;20050;-49
2022/10/20 02:44:09;;;;;;;3.60;2.20;;;;;;;11.66;71.89;99690.59;5004640;28;20100;-46
2022/10/20 02:46:54;;;;;;;5.53;2.42;;;;;;;11.35;71.16;99685.34;4991479;28;20045;-46
2022/10/20 02:49:38;;;;;;;7.13;2.67;;;;;;;12.01;70.29;99677.13;4996459;28;20482;-49
2022/10/20 02:52:23;;;;;;;4.72;2.95;;;;;;;11.77;67.06;99675.03;4995426;28;20042;-46
2022/10/20 02:55:07;;;;;;;4.32;3.00;;;;;;;10.89;70.91;99689.59;4991087;28;20491;-48
2022/10/20 02:57:52;;;;;;;3.67;2.03;;;;;;;11.45;72.56;99680.41;5001317;28;20125;-47
2022/10/20 03:00:37;;;;;;;5.18;3.03;;;;;;;11.18;70.64;99678.44;4997176;28;20073;-47
2022/10/20 03:03:21;;;;;;;3.90;2.60;;;;;;;11.49;71.05;99675.84;4997111;28;20047;-46
2022/10/20 03:06:11;;;;;;;4.10;2.33;;;;;;;11.28;72.31;99673.50;4993200;28;20041;-46
2022/10/20 03:08:57;;;;;;;3.33;2.58;;;;;;;11.72;70.49;99684.16;4996753;28;20101;-46
2022/10/20 03:11:41;;;;;;;4.20;2.40;;;;;;;11.11;71.63;99682.31;5005629;28;20429;-51
2022/10/20 03:14:26;;;;;;;3.58;2.58;;;;;;;11.83;70.18;99673.84;4990952;28;20042;-46
2022/10/20 03:17:10;;;;;;;4.00;2.38;;;;;;;10.63;71.16;99680.53;4991891;28;20042;-50
2022/10/20 03:19:55;;;;;;;3.72;2.60;;;;;;;10.66;71.81;99680.38;5007491;28;20038;-46
2022/10/20 03:22:39;;;;;;;3.50;2.28;;;;;;;10.37;75.97;99681.00;4990982;28;20125;-52
2022/10/20 03:25:23;;;;;;;5.30;2.65;;;;;;;8.71;76.79;99685.59;5000887;28;20042;-46
2022/10/20 03:28:09;;;;;;;3.42;2.40;;;;;;;6.86;83.52;99687.16;4992930;28;20462;-48
2022/10/20 03:30:54;;;;;;;4.75;2.38;;;;;;;7.62;84.43;99688.53;5007010;28;20049;-47
2022/10/20 03:33:38;;;;;;;3.78;2.25;;;;;;;8.84;80.45;99684.13;4997341;28;20118;-47
2022/10/20 03:36:24;;;;;;;3.92;1.90;;;;;;;9.26;80.07;99689.13;4992586;28;22165;-50
2022/10/20 03:39:11;;;;;;;3.22;1.88;;;;;;;9.33;79.03;99690.56;4995004;28;20050;-53
2022/10/20 03:41:56;;;;;;;3.00;2.05;;;;;;;9.02;80.59;99691.16;4995231;28;20125;-49
2022/10/20 03:44:43;;;;;;;5.07;1.75;;;;;;;9.54;76.78;99693.03;4991509;28;20038;-50
2022/10/20 03:47:28;;;;;;;3.85;1.88;;;;;;;8.68;81.88;99681.34;4992058;28;20038;-52
2022/10/20 03:50:17;;;;;;;3.60;1.90;;;;;;;10.00;77.89;99680.31;4993860;28;20050;-52
2022/10/20 03:53:02;;;;;;;3.88;1.60;;;;;;;10.63;76.85;99696.25;4978440;28;20124;-50
2022/10/20 03:55:47;;;;;;;2.33;1.67;;;;;;;10.44;73.85;99699.84;4992542;28;20077;-48
2022/10/20 03:58:32;;;;;;;7.25;2.03;;;;;;;10.19;71.23;99686.28;4992255;28;20149;-52
2022/10/20 04:01:19;;;;;;;3.17;2.25;;;;;;;8.53;73.83;99690.72;4996450;28;20323;-46
2022/10/20 04:04:04;;;;;;;4.18;2.53;;;;;;;8.80;77.92;99693.00;5000159;28;20038;-47
2022/10/20 04:06:49;;;;;;;3.72;2.38;;;;;;;8.69;74.41;99698.75;5000119;28;20125;-47
2022/10/20 04:09:33;;;;;;;6.35;2.60;;;;;;;8.49;74.73;99689.16;4997300;28;20440;-46
2022/10/20 04:12:18;;;;;;;5.47;2.17;;;;;;;8.50;75.31;99683.88;5014195;28;20069;-47
2022/10/20 04:15:04;;;;;;;3.67;2.20;;;;;;;8.74;75.43;99690.69;5014488;28;20408;-48
2022/10/20 04:17:48;;;;;;;2.30;1.92;;;;;;;8.45;74.12;99688.47;4998948;28;20189;-46
2022/10/20 04:20:33;;;;;;;3.58;2.17;;;;;;;7.99;75.65;99678.28;4997252;28;20533;-50
2022/10/20 04:23:18;;;;;;;2.65;1.70;;;;;;;8.06;76.14;99691.94;5003147;28;20050;-45
2022/10/20 04:26:15;;;;;;;3.03;2.13;;;;;;;8.28;75.81;99691.81;4992460;28;20038;-48
2022/10/20 04:29:01;;;;;;;4.75;2.78;;;;;;;7.96;75.85;99684.50;4976594;28;20104;-49
2022/10/20 04:31:46;;;;;;;4.03;2.53;;;;;;;7.38;78.82;99686.00;4982447;28;20037;-49
2022/10/20 04:34:31;;;;;;;2.65;2.28;;;;;;;7.49;78.59;99686.41;5006038;28;20038;-48
2022/10/20 04:37:17;;;;;;;2.65;1.70;;;;;;;6.83;79.80;99697.69;5008192;28;20073;-49
2022/10/20 04:40:02;;;;;;;3.17;1.90;;;;;;;6.75;81.96;99692.78;5000037;28;20139;-48
2022/10/20 04:42:46;;;;;;;3.42;2.20;;;;;;;6.91;80.80;99695.66;5006591;28;20386;-53
2022/10/20 04:45:30;;;;;;;4.28;2.50;;;;;;;6.94;81.01;99699.88;4992016;28;20233;-49
2022/10/20 04:48:16;;;;;;;3.28;2.13;;;;;;;6.87;80.58;99692.31;4990497;28;20474;-46
2022/10/20 04:51:02;;;;;;;3.08;2.17;;;;;;;6.59;80.59;99695.13;5020706;28;20073;-50
2022/10/20 04:53:47;;;;;;;3.65;1.85;;;;;;;6.95;80.25;99701.59;5014742;28;20125;-48
2022/10/20 04:56:32;;;;;;;2.58;2.00;;;;;;;7.32;78.57;99694.94;5006932;28;20117;-53
2022/10/20 04:59:16;;;;;;;4.00;2.13;;;;;;;7.32;78.29;99681.03;4990636;28;20042;-49
2022/10/20 05:02:01;;;;;;;3.15;1.98;;;;;;;7.36;78.03;99685.25;4977985;28;20102;-48
2022/10/20 05:04:45;;;;;;;3.83;2.00;;;;;;;7.38;77.44;99686.84;4989768;28;20500;-51
2022/10/20 05:07:29;;;;;;;2.42;1.60;;;;;;;7.57;76.75;99695.69;4988064;28;20070;-47
2022/10/20 05:10:14;;;;;;;2.45;1.65;;;;;;;7.75;75.37;99684.47;4991189;28;20492;-47
2022/10/20 05:12:59;;;;;;;3.50;2.10;;;;;;;7.71;75.40;99689.88;4984760;28;20070;-48
2022/10/20 05:15:43;;;;;;;3.35;2.20;;;;;;;7.74;75.05;99684.53;4987415;28;20382;-50
2022/10/20 05:18:28;;;;;;;3.25;2.15;;;;;;;7.77;75.08;99687.03;4988963;28;20072;-49
2022/10/20 05:21:15;;;;;;;4.47;2.65;;;;;;;7.46;76.95;99694.38;4990939;28;20050;-46
2022/10/20 05:24:03;;;;;;;4.88;2.40;;;;;;;7.16;79.26;99697.31;5004275;28;20049;-48
2022/10/20 05:26:47;;;;;;;4.70;2.13;;;;;;;7.15;79.60;99691.22;4991427;28;20100;-47
2022/10/20 05:29:32;;;;;;;3.13;2.00;;;;;;;7.30;79.54;99690.66;5001600;28;20504;-46
2022/10/20 05:32:17;;;;;;;3.95;2.38;;;;;;;8.04;76.40;99689.38;4990589;28;20061;-50
2022/10/20 05:35:01;;;;;;;4.30;2.47;;;;;;;8.19;75.28;99695.69;5001336;28;20113;-46
2022/10/20 05:37:46;;;;;;;3.58;2.47;;;;;;;8.24;74.74;99691.09;4988340;28;20042;-50
2022/10/20 05:40:30;;;;;;;3.50;2.20;;;;;;;8.21;74.81;99688.63;4988177;28;20050;-47
2022/10/20 05:43:15;;;;;;;4.10;2.40;;;;;;;8.43;74.14;99699.88;4988542;28;20053;-48
2022/10/20 05:46:01;;;;;;;4.13;2.58;;;;;;;8.67;72.88;99697.09;4972053;28;20066;-46
2022/10/20 05:48:46;;;;;;;3.55;2.47;;;;;;;8.86;73.02;99691.91;4990847;28;20038;-48
2022/10/20 05:51:34;;;;;;;4.35;2.28;;;;;;;9.06;72.39;99704.00;4991908;28;20038;-51
2022/10/20 05:54:18;;;;;;;3.78;2.38;;;;;;;9.22;70.14;99709.34;4992216;28;20038;-50
2022/10/20 05:57:03;;;;;;;2.88;2.50;;;;;;;9.57;69.96;99712.94;4990898;28;20117;-47
2022/10/20 05:59:48;;;;;;;4.10;2.00;;;;;;;9.76;69.76;99706.81;4991586;28;20073;-51
2022/10/20 06:02:32;;;;;;;3.78;2.13;;;;;;;9.69;70.23;99721.97;4986908;28;20323;-48
2022/10/20 06:05:17;;;;;;;4.03;2.72;;;;;;;9.76;70.29;99712.03;4988001;28;20042;-48
2022/10/20 06:08:02;;;;;;;4.53;2.58;;;;;;;10.04;69.51;99710.63;4988319;28;20126;-47
2022/10/20 06:10:46;;;;;;;5.00;2.28;;;;;;;10.23;68.19;99721.03;4994776;28;20038;-47
2022/10/20 06:13:31;;;;;;;7.38;3.00;;;;;;;11.29;78.31;99723.25;4992153;28;20490;-48
2022/10/20 06:16:19;;;;;;;4.40;2.33;;;;;;;10.82;63.77;99712.69;4993515;28;20061;-47
2022/10/20 06:19:05;;;;;;;4.22;2.13;;;;;;;10.28;65.94;99721.59;4992209;28;20041;-47
2022/10/20 06:21:50;;;;;;;5.07;3.22;;;;;;;10.76;64.07;99730.53;4993063;28;20137;-54
2022/10/20 06:24:35;;;;;;;5.20;2.70;;;;;;;11.01;63.14;99729.19;4992632;28;20109;-48
2022/10/20 06:27:19;;;;;;;4.88;2.55;;;;;;;11.89;62.42;99714.63;4989588;28;20152;-51
2022/10/20 06:30:04;;;;;;;5.68;2.70;;;;;;;11.95;60.32;99730.88;4995325;28;20069;-46
2022/10/20 06:32:53;;;;;;;2.83;2.15;;;;;;;11.58;62.65;99733.88;4996210;28;20359;-46
2022/10/20 06:35:38;;;;;;;3.72;2.42;;;;;;;11.63;63.80;99724.88;4991754;28;20038;-48
2022/10/20 06:38:22;;;;;;;3.25;2.40;;;;;;;11.85;62.21;99731.53;4996181;28;20091;-47
2022/10/20 06:41:09;;;;;;;5.30;3.35;;;;;;;12.00;60.71;99732.38;4993944;28;20097;-51
2022/10/20 06:43:57;;;;;;;3.33;2.17;;;;;;;12.19;60.43;99721.66;4993007;28;20122;-50
2022/10/20 06:46:42;;;;;;;5.35;3.60;;;;;;;12.00;59.70;99727.13;4990123;28;20443;-48
2022/10/20 06:49:26;;;;;;;3.72;2.45;;;;;;;12.01;59.93;99731.47;4992045;28;20042;-48
2022/10/20 06:52:11;;;;;;;4.03;2.25;;;;;;;12.58;59.60;99729.84;4998096;28;20488;-51
2022/10/20 06:54:56;;;;;;;3.70;2.08;;;;;;;12.70;58.39;99728.22;4989039;28;20497;-48
2022/10/20 06:57:41;;;;;;;4.90;2.88;;;;;;;12.77;58.90;99726.91;4991057;28;20390;-48
2022/10/20 07:00:25;;;;;;;3.53;2.38;;;;;;;13.27;58.18;99739.56;5008382;28;20493;-49
2022/10/20 07:03:10;;;;;;;3.92;2.35;;;;;;;13.64;57.30;99746.03;5005103;28;20046;-49
2022/10/20 07:05:56;;;;;;;4.65;2.67;;;;;;;13.46;57.00;99740.16;4992059;28;20138;-49
2022/10/20 07:08:40;;;;;;;4.70;3.17;;;;;;;14.03;55.32;99738.22;4992838;28;20524;-48
2022/10/20 07:11:27;;;;;;;4.20;2.67;;;;;;;13.73;55.79;99745.44;4993306;28;20527;-50
2022/10/20 07:14:13;;;;;;;5.72;2.75;;;;;;;13.98;56.44;99742.94;4993313;28;20088;-48
2022/10/20 07:16:58;;;;;;;4.80;3.10;;;;;;;14.80;53.69;99747.06;4994418;28;20034;-49
2022/10/20 07:19:42;;;;;;;5.25;3.22;;;;;;;14.35;54.26;99742.22;4996929;28;20446;-48
2022/10/20 07:22:27;;;;;;;6.95;3.00;;;;;;;14.73;53.28;99754.53;4998720;28;20129;-46
2022/10/20 07:25:12;;;;;;;5.57;3.00;;;;;;;14.98;51.54;99759.91;4991624;28;20052;-48
2022/10/20 07:27:56;;;;;;;4.03;3.08;;;;;;;15.37;51.38;99765.03;4995568;28;20042;-45
2022/10/20 07:30:41;;;;;;;5.43;3.13;;;;;;;14.94;53.25;99761.91;4988300;28;20058;-45
2022/10/20 07:33:26;;;;;;;6.55;3.28;;;;;;;15.16;52.95;99757.75;4993276;28;20057;-47
2022/10/20 07:36:17;;;;;;;4.55;3.20;;;;;;;14.87;54.05;99758.00;4990242;28;20061;-48
2022/10/20 07:39:04;;;;;;;6.95;3.50;;;;;;;15.87;51.17;99762.25;4992171;28;20034;-49
2022/10/20 07:41:49;;;;;;;10.27;4.00;;;;;;;15.95;50.82;99760.81;4995668;28;20062;-48
2022/10/20 07:44:34;;;;;;;6.85;3.33;;;;;;;16.91;48.34;99746.50;4995452;28;20516;-48
2022/10/20 07:47:18;;;;;;;4.18;3.05;;;;;;;16.58;48.95;99749.06;4992882;28;20121;-49
2022/10/20 07:50:03;;;;;;;5.25;3.38;;;;;;;16.84;48.20;99759.38;4994627;28;20046;-51
2022/10/20 07:52:52;;;;;;;6.43;3.30;;;;;;;17.09;47.41;99749.50;4991179;28;20056;-57
2022/10/20 07:55:36;;;;;;;6.15;4.03;;;;;;;15.75;50.53;99752.59;4986481;28;20065;-50
2022/10/20 07:58:21;;;;;;;6.70;3.58;;;;;;;16.21;49.57;99750.09;4995693;28;20113;-50
2022/10/20 08:01:05;;;;;;;6.22;3.53;;;;;;;15.72;50.71;99745.75;4992921;28;20046;-51
2022/10/20 08:03:50;;;;;;;5.47;3.50;;;;;;;16.00;50.75;99751.63;4990663;28;20042;-49
2022/10/20 08:06:35;;;;;;;4.45;3.08;;;;;;;15.91;51.19;99751.44;4989784;28;20092;-47
2022/10/20 08:09:19;;;;;;;6.50;4.03;;;;;;;17.38;47.62;99745.47;4992768;28;20798;-50
2022/10/20 08:12:04;;;;;;;6.97;4.05;;;;;;;17.92;46.34;99745.47;4996583;28;20061;-47
2022/10/20 08:14:50;;;;;;;5.40;3.75;;;;;;;17.64;46.18;99745.13;4993655;28;20430;-50
2022/10/20 08:17:35;;;;;;;5.80;4.13;;;;;;;18.06;45.62;99744.28;5002121;28;20056;-47
2022/10/20 08:20:20;;;;;;;4.97;3.40;;;;;;;16.79;47.34;99743.88;5003052;28;20176;-50
2022/10/20 08:23:05;;;;;;;5.97;3.00;;;;;;;17.39;45.73;99734.75;4987884;28;20054;-48
2022/10/20 08:25:54;;;;;;;5.88;3.28;;;;;;;16.83;45.32;99741.81;5003974;28;20045;-49
2022/10/20 08:28:39;;;;;;;2.80;2.30;;;;;;;16.18;46.05;99737.13;4989960;28;20463;-48
2022/10/20 08:31:24;;;;;;;3.88;2.65;;;;;;;15.36;46.22;99734.31;4988423;28;20363;-49
2022/10/20 08:34:08;;;;;;;4.40;2.22;;;;;;;14.65;47.87;99736.63;4980884;28;20398;-46
2022/10/20 08:36:53;;;;;;;3.42;2.38;;;;;;;15.03;46.97;99734.84;4996015;28;20411;-47
2022/10/20 08:39:38;;;;;;;3.30;2.15;;;;;;;15.44;46.50;99750.44;4988549;28;20054;-54
2022/10/20 08:42:24;;;;;;;3.03;2.15;;;;;;;16.05;45.49;99748.63;4993055;28;20054;-49
2022/10/20 08:45:18;;;;;;;4.70;2.78;;;;;;;16.31;45.21;99732.56;4995828;28;20053;-49
2022/10/20 08:48:03;;;;;;;4.38;2.15;;;;;;;15.95;45.89;99734.41;4990252;28;20410;-47
2022/10/20 08:50:50;;;;;;;5.45;2.55;;;;;;;15.74;46.30;99741.19;4991302;28;20042;-48
2022/10/20 08:53:38;;;;;;;4.20;2.60;;;;;;;16.34;45.58;99732.34;4989340;28;20547;-48
2022/10/20 08:56:27;;;;;;;3.95;2.78;;;;;;;16.03;45.70;99737.34;4995224;28;20061;-51
2022/10/20 08:59:33;;;;;;;4.63;2.85;;;;;;;16.41;45.33;99735.34;4988323;28;20469;-47
2022/10/20 09:02:18;;;;;;;3.53;2.60;;;;;;;16.13;45.79;99735.69;4988636;28;20046;-47
2022/10/20 09:05:04;;;;;;;4.13;2.67;;;;;;;16.97;43.22;99736.25;4989827;28;20422;-46
2022/10/20 09:07:48;;;;;;;3.90;2.13;;;;;;;17.87;41.96;99729.09;4994783;28;20042;-53
2022/10/20 09:10:40;;;;;;;5.13;2.40;;;;;;;17.41;41.58;99724.88;4989758;28;20445;-49
2022/10/20 09:13:28;;;;;;;3.92;2.30;;;;;;;17.16;42.61;99733.97;4987228;28;20060;-50
2022/10/20 09:16:32;;;;;;;6.18;2.70;;;;;;;16.90;43.81;99734.22;4990756;28;20116;-47
2022/10/20 09:19:19;;;;;;;4.47;3.22;;;;;;;17.65;41.76;99734.41;4977264;28;20080;-48
2022/10/20 09:22:05;;;;;;;3.95;2.53;;;;;;;18.11;41.55;99728.84;4992966;28;20084;-50
2022/10/20 09:24:54;;;;;;;3.70;2.78;;;;;;;16.47;44.43;99723.44;4986942;28;20035;-52
2022/10/20 09:27:41;;;;;;;6.80;3.17;;;;;;;16.87;44.21;99727.38;4993083;28;20137;-52
2022/10/20 09:30:29;;;;;;;3.92;3.08;;;;;;;17.96;42.08;99730.97;4990266;28;20046;-52
2022/10/20 09:33:27;;;;;;;4.50;2.70;;;;;;;17.41;43.33;99731.97;4989334;28;20042;-53
2022/10/20 09:36:19;;;;;;;3.40;2.97;;;;;;;17.53;43.50;99725.66;4991250;28;20057;-53
2022/10/20 09:39:05;;;;;;;5.82;3.30;;;;;;;18.01;42.29;99720.84;4988849;28;20042;-53
2022/10/20 09:41:59;;;;;;;4.75;3.00;;;;;;;17.72;43.50;99716.19;4980178;28;20038;-57
2022/10/20 09:44:57;;;;;;;5.18;2.78;;;;;;;18.64;41.03;99716.38;4986271;28;20110;-54
2022/10/20 09:47:47;;;;;;;4.00;2.60;;;;;;;17.62;43.81;99724.06;4989475;28;20466;-51
2022/10/20 09:50:39;;;;;;;4.97;2.80;;;;;;;17.65;43.80;99722.94;4989502;28;20104;-54
2022/10/20 09:53:31;;;;;;;4.85;3.20;;;;;;;17.88;42.84;99726.34;4988969;28;20069;-54
2022/10/20 09:56:40;;;;;;;4.95;2.53;;;;;;;17.92;42.15;99708.38;4986009;28;20068;-52
2022/10/20 09:59:31;;;;;;;4.15;2.28;;;;;;;20.03;39.31;99725.34;5005257;28;20104;-51
2022/10/20 10:02:22;;;;;;;5.95;2.40;;;;;;;19.44;39.83;99720.03;4988573;28;20053;-55
2022/10/20 10:05:19;;;;;;;5.70;3.60;;;;;;;18.94;41.15;99711.16;4990307;28;20042;-54
2022/10/20 10:08:12;;;;;;;4.22;2.63;;;;;;;17.13;44.11;99713.88;4989405;28;20470;-56
2022/10/20 10:10:58;;;;;;;5.13;2.47;;;;;;;18.95;41.06;99703.06;4985683;28;20502;-51
2022/10/20 10:13:46;;;;;;;5.38;2.95;;;;;;;17.91;42.37;99715.47;4990551;28;20413;-53
2022/10/20 10:16:48;;;;;;;4.35;2.90;;;;;;;18.91;41.52;99704.31;4988530;28;20046;-53
2022/10/20 10:19:33;;;;;;;5.50;2.72;;;;;;;18.68;41.10;99699.25;4985807;28;20367;-50
2022/10/20 10:22:18;;;;;;;3.60;2.70;;;;;;;18.10;42.51;99696.19;4995268;28;20409;-52
2022/10/20 10:25:04;;;;;;;6.18;2.85;;;;;;;19.66;40.20;99684.38;5001374;28;20062;-51
2022/10/20 10:28:02;;;;;;;5.30;3.00;;;;;;;19.21;39.34;99696.41;4983679;28;20034;-51
2022/10/20 10:30:47;;;;;;;3.40;2.30;;;;;;;17.77;42.16;99687.50;4988557;28;20053;-48
2022/10/20 10:33:34;;;;;;;7.93;2.30;;;;;;;19.15;41.11;99684.53;4987666;28;20042;-51
2022/10/20 10:36:34;;;;;;;3.65;2.78;;;;;;;18.79;39.82;99684.16;4994270;28;20065;-48
2022/10/20 10:39:18;;;;;;;4.40;2.75;;;;;;;18.78;42.02;99678.03;4992625;28;20213;-50
2022/10/20 10:42:14;;;;;;;3.80;2.50;;;;;;;19.55;40.33;99674.72;4989590;28;20069;-49
2022/10/20 10:45:31;;;;;;;5.40;2.33;;;;;;;19.97;38.99;99670.03;4986435;28;20474;-49
2022/10/20 10:48:22;;;;;;;4.72;2.78;;;;;;;19.51;38.42;99680.47;4987791;28;20129;-55
2022/10/20 10:51:15;;;;;;;3.47;2.70;;;;;;;19.13;39.19;99675.03;4993899;28;20049;-51
2022/10/20 10:54:12;;;;;;;4.35;2.53;;;;;;;19.15;39.63;99668.59;4996476;28;20050;-53
2022/10/20 10:57:04;;;;;;;4.10;2.80;;;;;;;19.29;38.93;99669.19;4982121;28;20038;-50
2022/10/20 10:59:51;;;;;;;3.95;2.33;;;;;;;19.96;36.88;99678.97;4992867;28;20041;-51
2022/10/20 11:02:56;;;;;;;7.18;2.42;;;;;;;19.77;38.90;99656.81;4994648;28;20034;-62
2022/10/20 11:06:07;;;;;;;3.83;2.92;;;;;;;18.61;39.74;99671.56;4996569;28;20085;-63
2022/10/20 11:09:19;;;;;;;5.88;1.98;;;;;;;18.39;39.22;99662.84;5010652;28;20042;-62
2022/10/20 11:12:30;;;;;;;4.18;1.90;;;;;;;18.83;39.21;99662.53;4991662;28;20034;-62
2022/10/20 11:15:32;;;;;;;2.72;1.83;;;;;;;17.72;39.06;99649.94;4995055;28;20050;-62
2022/10/20 11:18:36;;;;;;;3.13;1.73;;;;;;;17.54;41.06;99628.50;5004872;28;20057;-64
2022/10/20 11:21:51;;;;;;;2.95;1.80;;;;;;;18.09;40.29;99633.53;4975524;28;20050;-64
2022/10/20 11:25:12;;;;;;;4.07;2.83;;;;;;;18.33;40.91;99623.59;4993085;28;20118;-63
2022/10/20 11:27:57;;;;;;;4.90;2.97;;;;;;;18.84;41.88;99613.78;4993711;28;20049;-63
2022/10/20 11:30:45;;;;;;;3.92;2.88;;;;;;;17.95;42.98;99612.69;4993448;28;20034;-63
2022/10/20 11:33:56;;;;;;;3.92;2.83;;;;;;;17.42;43.65;99610.03;4990284;28;20045;-63
2022/10/20 11:36:51;;;;;;;4.60;3.03;;;;;;;17.70;43.86;99597.09;4994347;28;20068;-63
2022/10/20 11:39:44;;;;;;;4.57;2.10;;;;;;;19.32;42.43;99592.69;5004877;28;20489;-64
2022/10/20 11:42:35;;;;;;;6.15;3.72;;;;;;;18.42;42.32;99593.63;4982667;28;20101;-63
2022/10/20 11:45:34;;;;;;;4.25;3.05;;;;;;;18.66;42.45;99596.84;4989661;28;20034;-62
2022/10/20 11:48:29;;;;;;;5.43;3.13;;;;;;;18.56;42.42;99580.91;4993551;28;20070;-61
2022/10/20 11:51:30;;;;;;;6.85;2.72;;;;;;;18.14;44.02;99572.19;4989669;28;20120;-63
2022/10/20 11:54:53;;;;;;;4.05;2.83;;;;;;;18.97;41.89;99570.19;4991892;28;20167;-62
2022/10/20 11:57:54;;;;;;;5.20;2.78;;;;;;;17.66;44.60;99561.22;4990420;28;20093;-62
2022/10/20 12:00:58;;;;;;;4.53;2.50;;;;;;;18.16;43.96;99556.13;4988351;28;20485;-62
2022/10/20 12:04:00;;;;;;;4.00;2.90;;;;;;;17.77;44.34;99554.16;4994409;28;20386;-61
2022/10/20 12:06:48;;;;;;;4.05;2.58;;;;;;;17.95;43.88;99554.38;5001993;28;20068;-63
2022/10/20 12:09:54;;;;;;;6.20;3.03;;;;;;;19.26;42.22;99548.09;4993418;28;20042;-62
2022/10/20 12:12:54;;;;;;;4.93;2.40;;;;;;;19.92;40.86;99555.31;4998291;28;20502;-61
2022/10/20 12:15:47;;;;;;;5.13;2.83;;;;;;;19.01;41.31;99545.06;4995006;28;20059;-62
2022/10/20 12:18:35;;;;;;;6.25;2.50;;;;;;;19.69;40.71;99550.38;4970087;28;20050;-63
2022/10/20 12:22:00;;;;;;;5.15;3.30;;;;;;;19.22;41.71;99549.38;4976317;28;20065;-61
2022/10/20 12:24:51;;;;;;;6.70;2.92;;;;;;;18.70;42.20;99553.16;4970661;28;20043;-61
2022/10/20 12:27:35;;;;;;;4.07;2.47;;;;;;;18.94;41.49;99546.59;4990840;28;20125;-61
2022/10/20 12:30:41;;;;;;;4.22;2.80;;;;;;;18.16;43.55;99545.53;4970827;28;20069;-61
2022/10/20 12:33:48;;;;;;;5.13;2.67;;;;;;;18.59;42.99;99543.50;4966860;28;20134;-61
2022/10/20 12:36:38;;;;;;;6.32;2.78;;;;;;;17.94;44.16;99531.47;4973786;28;20042;-61
2022/10/20 12:39:28;;;;;;;3.97;2.65;;;;;;;18.77;42.23;99535.69;4982669;28;20062;-62
2022/10/20 12:42:36;;;;;;;3.53;2.63;;;;;;;17.76;43.96;99529.47;4988883;28;20513;-61
2022/10/20 12:45:34;;;;;;;4.95;2.78;;;;;;;18.86;42.56;99515.44;4981597;28;20815;-61
2022/10/20 12:48:22;;;;;;;5.40;2.42;;;;;;;18.90;41.45;99537.25;4985722;28;20047;-60
2022/10/20 12:51:17;;;;;;;6.18;2.55;;;;;;;18.25;43.49;99515.53;4971074;28;20042;-61
2022/10/20 12:54:39;;;;;;;4.40;2.97;;;;;;;17.61;44.90;99523.69;4972489;28;20166;-61
2022/10/20 12:57:29;;;;;;;2.92;2.30;;;;;;;18.48;43.45;99523.25;4923717;29;20051;-61
2022/10/20 13:00:20;;;;;;;5.88;2.38;;;;;;;19.10;42.48;99514.19;4925010;29;20160;-62
2022/10/20 13:03:35;;;;;;;4.07;2.50;;;;;;;18.39;43.94;99503.72;4926746;29;20094;-61
2022/10/20 13:06:23;;;;;;;4.55;2.53;;;;;;;18.42;43.29;99505.25;4933648;28;20062;-62
2022/10/20 13:09:22;;;;;;;4.85;2.65;;;;;;;18.66;43.21;99507.50;4924801;29;20171;-62
2022/10/20 13:12:25;;;;;;;4.60;2.50;;;;;;;19.10;41.85;99502.72;4920259;29;20062;-60
2022/10/20 13:15:12;;;;;;;5.35;2.53;;;;;;;19.76;41.61;99503.63;4919553;29;20060;-62
2022/10/20 13:18:01;;;;;;;3.42;2.30;;;;;;;19.18;42.38;99497.53;4927861;29;20457;-61
2022/10/20 13:20:57;;;;;;;3.60;2.40;;;;;;;18.85;43.06;99495.16;4930492;29;20051;-61
2022/10/20 13:23:59;;;;;;;5.55;2.45;;;;;;;18.90;42.88;99492.94;4924421;29;20039;-62